createdAt,value
2022-11-05T00:00:15.703Z,20.25
2022-11-05T00:03:01.453Z,20.92
2022-11-05T00:05:47.072Z,20.63
2022-11-05T00:08:32.617Z,20.23
2022-11-05T00:10:59.740Z,19.80
2022-11-05T00:13:45.433Z,19.98
2022-11-05T00:16:30.911Z,19.05
2022-11-05T00:19:06.853Z,18.20
2022-11-05T00:21:54.029Z,18.45
2022-11-05T00:24:40.152Z,19.27
2022-11-05T00:27:08.145Z,18.50
2022-11-05T00:29:36.002Z,19.65
2022-11-05T00:32:03.099Z,20.40
2022-11-05T00:34:30.219Z,21.77
2022-11-05T00:36:57.130Z,19.75
2022-11-05T00:39:24.253Z,21.08
2022-11-05T00:42:09.863Z,22.50
2022-11-05T00:44:55.418Z,22.20
2022-11-05T00:47:40.840Z,19.70
2022-11-05T00:50:08.154Z,17.85
2022-11-05T00:52:53.709Z,18.58
2022-11-05T00:55:20.989Z,17.80
2022-11-05T00:57:47.924Z,19.27
2022-11-05T01:00:15.307Z,19.92
2022-11-05T01:02:42.441Z,18.95
2022-11-05T01:05:09.588Z,18.75
2022-11-05T01:07:36.586Z,19.40
2022-11-05T01:10:03.948Z,18.52
2022-11-05T01:12:32.187Z,18.85
2022-11-05T01:14:59.779Z,18.95
2022-11-05T01:17:26.679Z,17.95
2022-11-05T01:19:53.617Z,18.40
2022-11-05T01:22:20.495Z,18.10
2022-11-05T01:24:47.485Z,19.27
2022-11-05T01:27:14.506Z,18.60
2022-11-05T01:29:42.340Z,19.45
2022-11-05T01:32:09.971Z,18.90
2022-11-05T01:34:37.289Z,19.15
2022-11-05T01:37:04.130Z,18.35
2022-11-05T01:39:31.513Z,19.10
2022-11-05T01:41:58.905Z,18.73
2022-11-05T01:45:01.871Z,19.10
2022-11-05T01:47:47.709Z,19.52
2022-11-05T01:50:44.770Z,20.95
2022-11-05T01:53:30.194Z,18.95
2022-11-05T01:56:03.236Z,19.08
2022-11-05T01:58:36.778Z,18.83
2022-11-05T02:01:04.030Z,19.35
2022-11-05T02:03:31.618Z,18.17
2022-11-05T02:06:00.901Z,18.92
2022-11-05T02:08:42.652Z,18.15
2022-11-05T02:11:09.759Z,18.20
2022-11-05T02:13:36.987Z,19.50
2022-11-05T02:16:23.366Z,19.23
2022-11-05T02:19:23.322Z,18.38
2022-11-05T02:22:17.906Z,18.90
2022-11-05T02:24:44.737Z,19.30
2022-11-05T02:27:33.135Z,19.23
2022-11-05T02:30:05.959Z,19.55
2022-11-05T02:32:51.776Z,19.90
2022-11-05T02:35:30.895Z,18.67
2022-11-05T02:38:09.043Z,19.17
2022-11-05T02:40:44.849Z,18.75
2022-11-05T02:43:16.543Z,20.23
2022-11-05T02:45:51.040Z,18.95
2022-11-05T02:48:18.106Z,18.40
2022-11-05T02:51:15.573Z,17.92
2022-11-05T02:53:49.331Z,18.88
2022-11-05T02:56:39.657Z,18.40
2022-11-05T02:59:06.848Z,18.42
2022-11-05T03:01:36.030Z,18.92
2022-11-05T03:04:06.927Z,19.30
2022-11-05T03:06:33.789Z,19.20
2022-11-05T03:09:26.444Z,19.08
2022-11-05T03:12:23.988Z,18.88
2022-11-05T03:15:09.142Z,19.25
2022-11-05T03:17:52.968Z,18.55
2022-11-05T03:20:25.238Z,20.70
2022-11-05T03:22:58.620Z,21.00
2022-11-05T03:25:29.332Z,20.30
2022-11-05T03:28:05.562Z,22.45
2022-11-05T03:30:35.649Z,21.17
2022-11-05T03:33:16.222Z,19.48
2022-11-05T03:35:48.099Z,21.63
2022-11-05T03:38:22.030Z,18.30
2022-11-05T03:40:54.457Z,18.30
2022-11-05T03:43:25.012Z,19.83
2022-11-05T03:46:24.671Z,19.17
2022-11-05T03:48:55.646Z,20.30
2022-11-05T03:51:41.984Z,19.90
2022-11-05T03:54:10.824Z,19.58
2022-11-05T03:56:52.395Z,20.17
2022-11-05T03:59:20.719Z,20.35
2022-11-05T04:01:48.447Z,21.00
2022-11-05T04:04:15.806Z,22.40
2022-11-05T04:07:01.149Z,25.80
2022-11-05T04:09:46.878Z,23.33
2022-11-05T04:12:32.248Z,21.55
2022-11-05T04:14:59.365Z,23.17
2022-11-05T04:17:26.410Z,21.08
2022-11-05T04:20:25.584Z,22.02
2022-11-05T04:23:31.070Z,20.92
2022-11-05T04:25:58.014Z,22.40
2022-11-05T04:28:44.822Z,22.33
2022-11-05T04:31:12.114Z,22.65
2022-11-05T04:33:38.904Z,22.70
2022-11-05T04:36:06.293Z,21.15
2022-11-05T04:38:33.146Z,22.13
2022-11-05T04:41:14.328Z,21.23
2022-11-05T04:43:41.461Z,23.02
2022-11-05T04:46:08.606Z,22.08
2022-11-05T04:48:35.777Z,19.92
2022-11-05T04:51:02.839Z,21.25
2022-11-05T04:53:29.830Z,22.45
2022-11-05T04:56:12.862Z,22.35
2022-11-05T04:58:41.693Z,21.08
2022-11-05T05:01:14.501Z,21.48
2022-11-05T05:03:41.798Z,22.02
2022-11-05T05:06:10.340Z,22.15
2022-11-05T05:08:38.536Z,21.70
2022-11-05T05:11:09.350Z,22.73
2022-11-05T05:13:36.833Z,22.27
2022-11-05T05:16:09.179Z,23.13
2022-11-05T05:18:36.421Z,22.80
2022-11-05T05:21:21.736Z,22.73
2022-11-05T05:23:48.948Z,22.33
2022-11-05T05:26:16.852Z,24.42
2022-11-05T05:28:44.154Z,25.63
2022-11-05T05:31:11.592Z,28.42
2022-11-05T05:33:39.022Z,26.17
2022-11-05T05:36:11.055Z,30.15
2022-11-05T05:38:39.077Z,30.63
2022-11-05T05:41:06.278Z,31.15
2022-11-05T05:43:34.439Z,33.08
2022-11-05T05:46:06.562Z,38.30
2022-11-05T05:48:34.396Z,40.38
2022-11-05T05:51:02.671Z,37.55
2022-11-05T05:53:30.766Z,35.22
2022-11-05T05:55:58.995Z,34.30
2022-11-05T05:58:30.746Z,34.65
2022-11-05T06:01:05.148Z,33.38
2022-11-05T06:03:32.386Z,31.65
2022-11-05T06:06:10.777Z,33.67
2022-11-05T06:08:37.709Z,33.15
2022-11-05T06:11:05.596Z,34.58
2022-11-05T06:13:33.608Z,41.50
2022-11-05T06:16:07.052Z,38.28
2022-11-05T06:18:34.512Z,40.67
2022-11-05T06:21:03.653Z,36.42
2022-11-05T06:23:35.578Z,32.58
2022-11-05T06:26:10.684Z,30.88
2022-11-05T06:28:38.188Z,35.25
2022-11-05T06:31:05.914Z,41.40
2022-11-05T06:33:32.911Z,34.88
2022-11-05T06:36:01.804Z,40.08
2022-11-05T06:38:31.532Z,56.67
2022-11-05T06:40:59.534Z,53.13
2022-11-05T06:43:28.637Z,39.28
2022-11-05T06:45:56.644Z,39.28
2022-11-05T06:48:25.569Z,38.55
2022-11-05T06:50:52.806Z,37.10
2022-11-05T06:53:20.087Z,35.38
2022-11-05T06:55:50.437Z,35.83
2022-11-05T06:58:17.473Z,34.13
2022-11-05T07:00:45.153Z,34.63
2022-11-05T07:03:13.113Z,33.60
2022-11-05T07:05:43.836Z,34.45
2022-11-05T07:08:10.998Z,50.28
2022-11-05T07:10:38.229Z,41.13
2022-11-05T07:13:08.407Z,46.60
2022-11-05T07:15:38.852Z,43.80
2022-11-05T07:18:07.588Z,41.33
2022-11-05T07:20:35.253Z,40.28
2022-11-05T07:23:07.170Z,37.45
2022-11-05T07:25:34.771Z,39.10
2022-11-05T07:28:02.726Z,38.05
2022-11-05T07:30:30.692Z,40.30
2022-11-05T07:32:57.870Z,40.28
2022-11-05T07:35:25.734Z,41.10
2022-11-05T07:37:54.168Z,40.28
2022-11-05T07:40:22.432Z,39.15
2022-11-05T07:42:52.236Z,38.72
2022-11-05T07:45:19.738Z,40.33
2022-11-05T07:47:55.586Z,40.92
2022-11-05T07:50:25.192Z,39.90
2022-11-05T07:52:52.763Z,39.72
2022-11-05T07:55:21.068Z,40.15
2022-11-05T07:57:50.343Z,38.70
2022-11-05T08:00:22.431Z,35.55
2022-11-05T08:03:07.166Z,36.60
2022-11-05T08:05:39.429Z,35.08
2022-11-05T08:08:14.153Z,34.92
2022-11-05T08:10:41.590Z,32.88
2022-11-05T08:13:09.973Z,32.55
2022-11-05T08:15:39.421Z,32.95
2022-11-05T08:18:17.680Z,32.03
2022-11-05T08:20:45.829Z,30.73
2022-11-05T08:23:13.062Z,32.40
2022-11-05T08:25:41.471Z,32.28
2022-11-05T08:28:12.933Z,31.75
2022-11-05T08:30:40.652Z,31.27
2022-11-05T08:33:11.211Z,30.42
2022-11-05T08:35:39.338Z,29.20
2022-11-05T08:38:36.049Z,29.38
2022-11-05T08:41:03.201Z,26.52
2022-11-05T08:43:30.229Z,27.55
2022-11-05T08:45:57.440Z,28.45
2022-11-05T08:48:24.543Z,28.17
2022-11-05T08:50:51.778Z,26.65
2022-11-05T08:53:19.036Z,31.05
2022-11-05T08:55:50.187Z,30.98
2022-11-05T08:58:17.987Z,31.65
2022-11-05T09:00:47.851Z,30.10
2022-11-05T09:03:16.017Z,31.48
2022-11-05T09:05:43.696Z,29.58
2022-11-05T09:08:13.780Z,26.27
2022-11-05T09:10:42.114Z,26.20
2022-11-05T09:13:16.661Z,26.55
2022-11-05T09:15:45.820Z,25.88
2022-11-05T09:18:14.465Z,25.05
2022-11-05T09:20:42.579Z,23.08
2022-11-05T09:23:11.851Z,24.55
2022-11-05T09:25:39.556Z,24.52
2022-11-05T09:28:18.847Z,24.58
2022-11-05T09:30:50.806Z,23.40
2022-11-05T09:33:20.527Z,22.55
2022-11-05T09:35:47.940Z,23.20
2022-11-05T09:38:15.247Z,24.30
2022-11-05T09:41:13.270Z,22.90
2022-11-05T09:43:52.045Z,23.13
2022-11-05T09:46:33.816Z,21.67
2022-11-05T09:49:06.198Z,22.55
2022-11-05T09:51:36.162Z,21.67
2022-11-05T09:54:04.632Z,21.88
2022-11-05T09:56:37.069Z,22.75
2022-11-05T09:59:07.521Z,21.83
2022-11-05T10:01:38.033Z,21.03
2022-11-05T10:04:16.431Z,18.80
2022-11-05T10:06:54.735Z,19.00
2022-11-05T10:09:31.623Z,18.40
2022-11-05T10:12:07.830Z,17.00
2022-11-05T10:14:40.949Z,15.98
2022-11-05T10:17:14.983Z,17.58
2022-11-05T10:19:50.046Z,15.25
2022-11-05T10:22:19.441Z,15.65
2022-11-05T10:24:49.581Z,16.40
2022-11-05T10:30:15.694Z,14.55
2022-11-05T10:32:44.892Z,13.52
2022-11-05T10:35:22.803Z,14.18
2022-11-05T10:37:51.436Z,14.90
2022-11-05T10:40:36.451Z,16.92
2022-11-05T10:43:06.668Z,14.95
2022-11-05T10:45:52.587Z,14.50
2022-11-05T10:48:44.070Z,14.57
2022-11-05T10:51:11.735Z,14.80
2022-11-05T10:53:39.914Z,14.02
2022-11-05T10:56:37.975Z,13.93
2022-11-05T10:59:18.952Z,13.52
2022-11-05T11:01:47.266Z,14.13
2022-11-05T11:04:24.163Z,13.70
2022-11-05T11:06:56.425Z,15.07
2022-11-05T11:09:30.724Z,14.95
2022-11-05T11:12:20.656Z,15.88
2022-11-05T11:15:14.977Z,15.68
2022-11-05T11:17:42.828Z,15.52
2022-11-05T11:20:30.105Z,14.02
2022-11-05T11:23:05.260Z,13.68
2022-11-05T11:26:00.748Z,14.05
2022-11-05T11:28:33.847Z,13.30
2022-11-05T11:31:13.694Z,12.43
2022-11-05T11:33:44.118Z,13.15
2022-11-05T11:36:13.034Z,12.32
2022-11-05T11:38:41.382Z,12.48
2022-11-05T11:41:12.145Z,12.07
2022-11-05T11:43:42.338Z,10.93
2022-11-05T11:46:20.125Z,12.25
2022-11-05T11:49:03.892Z,11.40
2022-11-05T11:51:49.882Z,10.60
2022-11-05T11:54:28.620Z,11.07
2022-11-05T11:56:58.628Z,10.60
2022-11-05T11:59:53.991Z,10.52
2022-11-05T12:02:43.091Z,10.90
2022-11-05T12:05:28.966Z,10.52
2022-11-05T12:08:04.964Z,11.23
2022-11-05T12:10:48.353Z,10.90
2022-11-05T12:13:54.044Z,10.23
2022-11-05T12:16:45.745Z,10.82
2022-11-05T12:19:22.082Z,11.18
2022-11-05T12:22:04.758Z,11.38
2022-11-05T12:24:40.955Z,9.77
2022-11-05T12:27:38.245Z,10.10
2022-11-05T12:30:12.443Z,10.27
2022-11-05T12:33:10.204Z,10.55
2022-11-05T12:35:54.815Z,8.50
2022-11-05T12:38:42.967Z,7.55
2022-11-05T12:41:21.862Z,6.63
2022-11-05T12:44:13.738Z,6.45
2022-11-05T12:47:07.504Z,5.13
2022-11-05T12:49:51.997Z,4.82
2022-11-05T12:52:43.663Z,4.28
2022-11-05T12:55:24.196Z,3.63
2022-11-05T12:58:00.271Z,2.95
2022-11-05T13:00:29.530Z,5.70
2022-11-05T13:03:12.193Z,5.00
2022-11-05T13:06:05.426Z,4.00
2022-11-05T13:08:49.814Z,4.53
2022-11-05T13:11:26.412Z,4.20
2022-11-05T13:14:27.053Z,4.45
2022-11-05T13:17:05.483Z,5.18
2022-11-05T13:19:38.710Z,3.90
2022-11-05T13:22:17.802Z,4.15
2022-11-05T13:24:53.271Z,3.65
2022-11-05T13:27:41.040Z,3.78
2022-11-05T13:30:22.759Z,3.80
2022-11-05T13:35:27.203Z,4.45
2022-11-05T13:38:20.382Z,4.65
2022-11-05T13:41:14.903Z,4.13
2022-11-05T13:43:44.819Z,4.63
2022-11-05T13:46:22.764Z,4.57
2022-11-05T13:49:18.864Z,4.68
2022-11-05T13:51:50.069Z,5.55
2022-11-05T13:54:26.083Z,4.57
2022-11-05T13:57:17.978Z,5.47
2022-11-05T14:00:24.622Z,5.18
2022-11-05T14:02:58.043Z,7.82
2022-11-05T14:05:36.683Z,8.38
2022-11-05T14:08:21.183Z,10.27
2022-11-05T14:11:15.696Z,8.07
2022-11-05T14:13:45.205Z,8.70
2022-11-05T14:16:40.835Z,7.15
2022-11-05T14:19:20.277Z,7.30
2022-11-05T14:21:57.652Z,7.13
2022-11-05T14:24:40.567Z,8.48
2022-11-05T14:27:08.646Z,7.05
2022-11-05T14:29:45.114Z,7.38
2022-11-05T14:32:20.942Z,7.38
2022-11-05T14:35:07.868Z,6.75
2022-11-05T14:38:00.292Z,6.63
2022-11-05T14:40:42.402Z,6.03
2022-11-05T14:43:22.213Z,7.10
2022-11-05T14:46:02.929Z,7.18
2022-11-05T14:48:46.907Z,7.40
2022-11-05T14:51:38.907Z,8.13
2022-11-05T14:54:27.206Z,8.95
2022-11-05T14:57:00.043Z,9.18
2022-11-05T14:59:31.823Z,8.77
2022-11-05T15:02:17.437Z,9.20
2022-11-05T15:04:48.333Z,8.65
2022-11-05T15:07:24.511Z,10.97
2022-11-05T15:09:54.528Z,12.50
2022-11-05T15:12:40.289Z,13.85
2022-11-05T15:15:21.404Z,9.63
2022-11-05T15:17:58.383Z,9.38
2022-11-05T15:20:39.628Z,9.23
2022-11-05T15:25:58.568Z,8.60
2022-11-05T15:28:35.634Z,10.20
2022-11-05T15:31:31.229Z,11.70
2022-11-05T15:34:17.088Z,12.57
2022-11-05T15:36:48.494Z,14.70
2022-11-05T15:42:25.474Z,11.05
2022-11-05T15:44:55.163Z,10.43
2022-11-05T15:47:28.586Z,10.65
2022-11-05T15:50:02.109Z,10.88
2022-11-05T15:52:42.446Z,10.77
2022-11-05T15:55:12.251Z,13.30
2022-11-05T15:57:50.448Z,13.50
2022-11-05T16:00:24.594Z,14.43
2022-11-05T16:03:24.388Z,14.55
2022-11-05T16:05:51.649Z,14.05
2022-11-05T16:08:21.861Z,19.05
2022-11-05T16:10:52.434Z,20.10
2022-11-05T16:13:33.222Z,17.92
2022-11-05T16:16:03.539Z,13.85
2022-11-05T16:18:36.069Z,13.80
2022-11-05T16:21:14.380Z,14.05
2022-11-05T16:23:43.126Z,14.32
2022-11-05T16:29:23.186Z,24.83
2022-11-05T16:31:52.976Z,14.65
2022-11-05T16:34:46.818Z,15.02
2022-11-05T16:37:16.262Z,13.88
2022-11-05T16:39:43.133Z,13.18
2022-11-05T16:42:23.022Z,19.17
2022-11-05T16:44:51.467Z,30.00
2022-11-05T16:47:19.851Z,23.35
2022-11-05T16:49:50.303Z,24.13
2022-11-05T16:52:17.453Z,26.10
2022-11-05T16:54:44.664Z,27.35
2022-11-05T16:57:37.951Z,25.98
2022-11-05T17:00:06.576Z,26.42
2022-11-05T17:02:33.671Z,30.90
2022-11-05T17:05:01.027Z,33.65
2022-11-05T17:07:28.100Z,31.23
2022-11-05T17:09:56.082Z,32.60
2022-11-05T17:12:23.075Z,34.13
2022-11-05T17:14:50.102Z,36.88
2022-11-05T17:17:17.081Z,35.22
2022-11-05T17:19:44.877Z,37.92
2022-11-05T17:22:11.775Z,41.70
2022-11-05T17:24:39.085Z,42.08
2022-11-05T17:27:06.267Z,37.47
2022-11-05T17:29:33.433Z,37.55
2022-11-05T17:32:00.618Z,29.02
2022-11-05T17:34:27.682Z,27.27
2022-11-05T17:36:54.939Z,28.15
2022-11-05T17:39:24.855Z,30.80
2022-11-05T17:41:55.188Z,43.40
2022-11-05T17:44:22.175Z,58.63
2022-11-05T17:46:49.899Z,61.28
2022-11-05T17:49:16.910Z,62.90
2022-11-05T17:51:43.920Z,55.28
2022-11-05T17:54:11.121Z,63.33
2022-11-05T17:56:44.479Z,55.47
2022-11-05T17:59:11.998Z,48.80
2022-11-05T18:01:43.458Z,39.08
2022-11-05T18:04:11.097Z,35.38
2022-11-05T18:06:41.671Z,32.00
2022-11-05T18:09:09.900Z,29.17
2022-11-05T18:11:37.967Z,26.67
2022-11-05T18:14:05.173Z,26.05
2022-11-05T18:16:32.956Z,22.42
2022-11-05T18:19:01.151Z,20.20
2022-11-05T18:21:28.362Z,19.13
2022-11-05T18:23:55.464Z,17.65
2022-11-05T18:26:22.352Z,19.23
2022-11-05T18:28:49.539Z,28.33
2022-11-05T18:31:20.613Z,27.05
2022-11-05T18:33:51.515Z,19.63
2022-11-05T18:36:24.522Z,17.52
2022-11-05T18:38:52.352Z,17.13
2022-11-05T18:41:20.695Z,18.90
2022-11-05T18:43:47.792Z,21.60
2022-11-05T18:46:43.161Z,23.77
2022-11-05T18:49:05.713Z,20.95
2022-11-05T18:51:33.083Z,21.88
2022-11-05T18:54:00.663Z,26.15
2022-11-05T18:56:27.683Z,28.67
2022-11-05T18:59:14.859Z,31.95
2022-11-05T19:01:42.566Z,49.53
2022-11-05T19:04:10.127Z,51.92
2022-11-05T19:06:37.443Z,38.38
2022-11-05T19:09:06.144Z,39.72
2022-11-05T19:11:33.690Z,32.45
2022-11-05T19:14:05.699Z,27.05
2022-11-05T19:16:33.134Z,25.33
2022-11-05T19:19:02.340Z,23.60
2022-11-05T19:21:30.282Z,21.30
2022-11-05T19:24:01.336Z,22.17
2022-11-05T19:26:29.349Z,24.83
2022-11-05T19:29:00.650Z,21.90
2022-11-05T19:31:31.332Z,20.35
2022-11-05T19:33:58.782Z,22.20
2022-11-05T19:36:26.278Z,22.63
2022-11-05T19:39:02.339Z,22.88
2022-11-05T19:41:29.400Z,23.80
2022-11-05T19:43:58.159Z,31.27
2022-11-05T19:46:25.450Z,32.75
2022-11-05T19:48:52.913Z,35.10
2022-11-05T19:51:24.438Z,41.03
2022-11-05T19:56:22.825Z,37.10
2022-11-05T19:58:50.483Z,32.17
2022-11-05T20:01:18.667Z,25.80
2022-11-05T20:03:46.430Z,23.17
2022-11-05T20:06:16.301Z,20.77
2022-11-05T20:09:07.093Z,19.40
2022-11-05T20:11:32.215Z,16.35
2022-11-05T20:13:59.518Z,15.25
2022-11-05T20:16:30.066Z,17.77
2022-11-05T20:18:57.949Z,18.42
2022-11-05T20:21:25.068Z,17.60
2022-11-05T20:23:51.994Z,17.00
2022-11-05T20:26:18.925Z,16.92
2022-11-05T20:28:46.361Z,16.38
2022-11-05T20:31:16.626Z,17.52
2022-11-05T20:33:45.082Z,16.60
2022-11-05T20:36:20.870Z,15.10
2022-11-05T20:38:49.147Z,14.63
2022-11-05T20:41:19.585Z,16.35
2022-11-05T20:43:48.159Z,17.02
2022-11-05T20:46:17.314Z,19.58
2022-11-05T20:48:45.417Z,17.75
2022-11-05T20:51:15.635Z,16.83
2022-11-05T20:53:43.609Z,16.30
2022-11-05T20:56:23.403Z,16.55
2022-11-05T20:58:50.928Z,16.55
2022-11-05T21:01:19.204Z,15.95
2022-11-05T21:03:47.988Z,16.10
2022-11-05T21:06:15.798Z,15.55
2022-11-05T21:08:43.609Z,14.80
2022-11-05T21:11:11.344Z,16.73
2022-11-05T21:13:38.726Z,18.60
2022-11-05T21:16:07.725Z,15.27
2022-11-05T21:21:20.152Z,15.52
2022-11-05T21:23:47.559Z,15.02
2022-11-05T21:26:15.375Z,15.15
2022-11-05T21:28:42.832Z,15.35
2022-11-05T21:31:10.436Z,15.52
2022-11-05T21:33:38.140Z,15.65
2022-11-05T21:36:11.370Z,15.65
2022-11-05T21:38:38.770Z,15.80
2022-11-05T21:41:06.512Z,16.67
2022-11-05T21:43:33.744Z,15.35
2022-11-05T21:46:02.453Z,15.68
2022-11-05T21:48:30.409Z,15.27
2022-11-05T21:51:15.945Z,16.20
2022-11-05T21:54:01.597Z,14.95
2022-11-05T21:57:18.814Z,15.57
2022-11-05T21:59:48.915Z,14.57
2022-11-05T22:02:19.634Z,14.77
2022-11-05T22:04:49.522Z,15.25
2022-11-05T22:07:20.149Z,15.52
2022-11-05T22:09:47.337Z,15.07
2022-11-05T22:12:14.701Z,16.05
2022-11-05T22:14:42.264Z,14.75
2022-11-05T22:17:10.847Z,15.52
2022-11-05T22:19:38.004Z,16.08
2022-11-05T22:22:06.958Z,15.57
2022-11-05T22:24:35.070Z,15.77
2022-11-05T22:27:05.037Z,15.15
2022-11-05T22:29:32.605Z,15.48
2022-11-05T22:31:59.959Z,15.85
2022-11-05T22:34:26.987Z,16.02
2022-11-05T22:36:54.191Z,17.42
2022-11-05T22:39:21.768Z,17.60
2022-11-05T22:41:49.301Z,17.23
2022-11-05T22:44:17.385Z,17.33
2022-11-05T22:46:44.554Z,15.93
2022-11-05T22:49:12.293Z,15.60
2022-11-05T22:51:39.852Z,16.20
2022-11-05T22:54:07.910Z,17.42
2022-11-05T22:56:38.775Z,15.80
2022-11-05T22:59:07.112Z,16.45
2022-11-05T23:01:34.240Z,17.33
2022-11-05T23:04:01.494Z,16.60
2022-11-05T23:06:51.736Z,16.85
2022-11-05T23:09:43.738Z,17.52
2022-11-05T23:12:28.718Z,16.85
2022-11-05T23:14:58.043Z,16.50
2022-11-05T23:17:44.238Z,18.60
2022-11-05T23:20:33.321Z,18.92
2022-11-05T23:23:19.162Z,18.58
2022-11-05T23:25:46.335Z,18.40
2022-11-05T23:28:14.148Z,17.70
2022-11-05T23:31:03.241Z,17.45
2022-11-05T23:33:34.064Z,17.77
2022-11-05T23:36:19.858Z,17.83
2022-11-05T23:38:47.183Z,16.55
2022-11-05T23:41:32.561Z,17.17
2022-11-05T23:44:18.248Z,15.73
2022-11-05T23:47:03.465Z,16.30
2022-11-05T23:49:30.903Z,16.10
2022-11-05T23:51:57.776Z,17.38
2022-11-05T23:54:24.801Z,16.92
2022-11-05T23:56:51.671Z,15.95
2022-11-05T23:59:18.943Z,14.90
